Time;durP1;ratioP1;P1;durP2;ratioP2;P2;SDS_P1;SDS_P2;PMS_P1;PMS_P2;Temp;Humidity;BMP_temperature;BMP_pressure;BME280_temperature;BME280_humidity;BME280_pressure;Samples;Min_cycle;Max_cycle;Signal;HPM_P1;HPM_P2
2022/01/07 00:00:55;;;;;;;2.50;2.28;;;;;;;2.78;55.88;93881.09;5004249;28;20067;-73
2022/01/07 00:03:22;;;;;;;4.75;2.58;;;;;;;2.75;56.19;93879.75;5006214;28;20668;-72
2022/01/07 00:05:49;;;;;;;3.00;2.40;;;;;;;2.71;55.97;93862.16;4997240;28;20059;-73
2022/01/07 00:08:18;;;;;;;2.78;2.42;;;;;;;2.81;55.84;93867.44;5011204;28;20048;-73
2022/01/07 00:10:43;;;;;;;5.82;2.83;;;;;;;2.80;55.69;93860.59;5012200;28;20449;-74
2022/01/07 00:13:09;;;;;;;3.63;2.42;;;;;;;2.95;55.67;93884.22;5021572;28;20132;-73
2022/01/07 00:15:35;;;;;;;3.38;2.42;;;;;;;3.08;55.34;93888.19;5018632;28;20120;-73
2022/01/07 00:18:00;;;;;;;3.25;2.67;;;;;;;2.77;55.47;93855.88;5005561;28;20103;-74
2022/01/07 00:20:27;;;;;;;3.67;2.25;;;;;;;2.95;55.32;93887.66;5018764;28;20806;-73
2022/01/07 00:22:52;;;;;;;2.15;1.95;;;;;;;2.91;55.31;93896.31;5021658;28;20033;-73
2022/01/07 00:25:18;;;;;;;2.60;2.40;;;;;;;2.71;55.31;93875.31;5020685;28;20040;-73
2022/01/07 00:27:44;;;;;;;3.15;2.25;;;;;;;2.63;55.28;93878.47;5020835;28;20042;-73
2022/01/07 00:30:12;;;;;;;2.67;1.98;;;;;;;2.79;55.42;93895.81;5021093;28;20068;-73
2022/01/07 00:32:38;;;;;;;4.53;2.75;;;;;;;2.63;55.49;93875.84;5017483;28;20051;-73
2022/01/07 00:35:06;;;;;;;2.95;1.98;;;;;;;2.81;55.04;93877.94;5022374;28;20222;-73
2022/01/07 00:37:31;;;;;;;4.32;2.38;;;;;;;3.06;55.02;93891.06;5020105;28;21318;-73
2022/01/07 00:39:57;;;;;;;2.17;1.98;;;;;;;3.10;54.72;93886.84;5016520;28;20128;-73
2022/01/07 00:42:22;;;;;;;2.65;2.20;;;;;;;2.85;55.10;93871.09;5005982;28;20049;-72
2022/01/07 00:44:48;;;;;;;3.78;2.33;;;;;;;2.87;54.66;93872.44;5010779;28;20043;-73
2022/01/07 00:47:13;;;;;;;3.10;2.15;;;;;;;3.07;54.57;93892.66;5016265;28;20059;-73
2022/01/07 00:49:38;;;;;;;4.18;2.13;;;;;;;3.13;54.28;93902.13;5010658;28;20020;-73
2022/01/07 00:52:05;;;;;;;4.75;3.00;;;;;;;3.02;54.24;93900.53;5023105;28;20152;-73
2022/01/07 00:54:30;;;;;;;3.72;2.30;;;;;;;2.82;54.66;93882.16;5018956;28;20048;-73
2022/01/07 00:56:56;;;;;;;2.63;2.17;;;;;;;2.86;54.38;93896.31;5014824;28;20033;-73
2022/01/07 00:59:21;;;;;;;3.15;2.35;;;;;;;2.84;54.54;93919.44;5012849;28;21058;-73
2022/01/07 01:01:47;;;;;;;2.65;2.22;;;;;;;2.60;55.00;93913.13;5020975;28;20028;-73
2022/01/07 01:04:18;;;;;;;3.65;2.15;;;;;;;2.75;54.83;93931.50;5008290;28;20579;-72
2022/01/07 01:06:45;;;;;;;2.70;2.22;;;;;;;2.50;55.42;93935.66;5016511;28;23420;-72
2022/01/07 01:09:23;;;;;;;3.00;2.65;;;;;;;2.44;55.77;93935.94;5020949;28;20049;-73
2022/01/07 01:11:49;;;;;;;3.53;2.28;;;;;;;2.26;56.15;93939.81;5005482;28;20051;-73
2022/01/07 01:14:14;;;;;;;3.33;2.35;;;;;;;2.06;56.56;93924.00;5018619;28;20029;-74
2022/01/07 01:16:40;;;;;;;2.95;1.88;;;;;;;2.03;56.64;93914.03;5010995;28;20484;-73
2022/01/07 01:19:06;;;;;;;3.83;2.13;;;;;;;2.08;57.06;93925.31;5009418;28;20427;-73
2022/01/07 01:21:33;;;;;;;3.22;2.15;;;;;;;2.22;56.64;93938.75;5023727;28;20083;-73
2022/01/07 01:23:58;;;;;;;2.47;2.13;;;;;;;2.15;56.72;93917.22;4997365;28;20570;-74
2022/01/07 01:26:24;;;;;;;2.63;2.20;;;;;;;2.38;56.12;93931.72;5018484;28;20034;-74
2022/01/07 01:28:49;;;;;;;2.70;2.25;;;;;;;2.29;56.32;93934.06;5018730;28;20388;-74
2022/01/07 01:31:16;;;;;;;2.30;1.90;;;;;;;2.08;56.39;93906.16;5018116;28;20052;-73
2022/01/07 01:33:44;;;;;;;4.18;2.53;;;;;;;2.15;56.62;93906.72;5017900;28;20445;-74
2022/01/07 01:36:09;;;;;;;2.50;2.05;;;;;;;2.24;56.38;93928.78;5015179;28;20044;-73
2022/01/07 01:38:36;;;;;;;4.43;2.50;;;;;;;2.19;56.25;93923.53;5018067;28;20041;-74
2022/01/07 01:41:02;;;;;;;2.92;2.38;;;;;;;2.01;56.61;93905.63;5018020;28;20025;-74
2022/01/07 01:43:27;;;;;;;3.85;2.17;;;;;;;2.23;56.88;93932.47;5015130;28;20048;-74
2022/01/07 01:45:53;;;;;;;4.25;2.20;;;;;;;2.31;56.24;93908.31;5011111;28;20452;-73
2022/01/07 01:48:20;;;;;;;2.45;2.15;;;;;;;2.48;55.93;93937.00;5022960;28;20456;-72
2022/01/07 01:50:46;;;;;;;2.50;2.22;;;;;;;2.56;55.56;93928.59;5000646;28;20038;-74
2022/01/07 01:53:13;;;;;;;2.55;2.35;;;;;;;2.44;55.44;93920.19;5018069;28;20263;-74
2022/01/07 01:55:38;;;;;;;2.53;2.33;;;;;;;2.64;55.59;93930.72;5015781;28;20588;-73
2022/01/07 01:58:05;;;;;;;3.85;2.30;;;;;;;2.69;55.23;93927.31;5018486;28;24435;-73
2022/01/07 02:00:31;;;;;;;2.25;1.90;;;;;;;2.60;55.15;93921.00;5015442;28;20580;-74
2022/01/07 02:02:56;;;;;;;4.60;2.67;;;;;;;2.55;55.24;93921.00;5003120;28;20048;-73
2022/01/07 02:05:22;;;;;;;2.40;2.17;;;;;;;2.54;54.82;93893.94;5012993;28;20033;-73
2022/01/07 02:07:48;;;;;;;3.17;2.30;;;;;;;2.82;54.88;93924.16;5015945;28;20028;-75
2022/01/07 02:10:16;;;;;;;3.15;2.28;;;;;;;2.83;54.66;93915.25;5018640;28;20514;-73
2022/01/07 02:12:42;;;;;;;3.05;2.35;;;;;;;3.03;54.51;93932.84;5015608;28;20076;-73
2022/01/07 02:15:10;;;;;;;4.28;2.20;;;;;;;3.08;54.09;93931.03;5016042;28;20045;-74
2022/01/07 02:17:39;;;;;;;2.75;2.25;;;;;;;3.02;54.11;93932.06;5020000;28;20041;-73
2022/01/07 02:20:05;;;;;;;2.28;2.08;;;;;;;2.74;54.15;93914.97;5017296;28;20552;-74
2022/01/07 02:22:30;;;;;;;3.28;2.08;;;;;;;2.55;55.54;93934.13;5015631;28;20171;-73
2022/01/07 02:24:56;;;;;;;2.70;2.00;;;;;;;2.84;54.77;93948.34;5010990;28;20045;-74
2022/01/07 02:27:23;;;;;;;2.40;2.10;;;;;;;2.99;54.42;93937.06;5013741;28;20709;-74
2022/01/07 02:29:50;;;;;;;3.35;2.40;;;;;;;2.80;54.73;93926.25;5015081;28;20554;-73
2022/01/07 02:32:17;;;;;;;3.47;2.45;;;;;;;2.95;54.35;93921.00;5018247;28;20036;-74
2022/01/07 02:34:43;;;;;;;2.35;2.03;;;;;;;3.01;54.09;93948.88;5019019;28;20108;-74
2022/01/07 02:37:12;;;;;;;2.45;2.25;;;;;;;3.16;53.56;93948.09;5011023;28;20040;-73
2022/01/07 02:39:38;;;;;;;3.10;2.10;;;;;;;3.02;53.99;93945.19;5014267;28;20041;-74
2022/01/07 02:42:04;;;;;;;5.15;2.35;;;;;;;3.06;54.21;93946.25;5003498;28;20484;-73
2022/01/07 02:44:29;;;;;;;3.15;1.83;;;;;;;3.22;53.93;93944.41;5017422;28;20144;-74
2022/01/07 02:46:55;;;;;;;2.65;2.20;;;;;;;3.32;53.34;93942.56;5012722;28;20025;-74
2022/01/07 02:49:20;;;;;;;3.25;2.35;;;;;;;3.37;53.15;93960.97;5011837;28;20033;-73
2022/01/07 02:51:47;;;;;;;2.80;1.98;;;;;;;3.27;53.27;93955.72;5022187;28;20454;-74
2022/01/07 02:54:13;;;;;;;3.50;2.35;;;;;;;3.07;53.48;93962.81;5011553;28;20051;-74
2022/01/07 02:56:39;;;;;;;2.22;2.05;;;;;;;2.79;53.95;93948.34;5012480;28;20664;-73
2022/01/07 02:59:06;;;;;;;5.22;2.58;;;;;;;2.65;54.17;93965.63;5004282;28;20061;-73
2022/01/07 03:01:33;;;;;;;2.53;2.08;;;;;;;2.56;54.21;93943.56;5018567;28;20045;-75
2022/01/07 03:04:00;;;;;;;3.00;2.70;;;;;;;2.78;54.26;93954.63;5014546;28;20056;-73
2022/01/07 03:06:26;;;;;;;3.47;2.88;;;;;;;2.90;53.98;93955.16;5019560;28;20242;-73
2022/01/07 03:08:52;;;;;;;4.85;2.88;;;;;;;2.66;54.17;93943.56;5008450;28;21105;-74
2022/01/07 03:11:19;;;;;;;7.05;2.38;;;;;;;2.95;54.00;93957.78;5020009;28;20450;-74
2022/01/07 03:13:45;;;;;;;4.05;2.55;;;;;;;2.99;53.77;93953.59;5015065;28;20504;-73
2022/01/07 03:16:11;;;;;;;4.78;2.40;;;;;;;3.17;53.61;93955.72;5007618;28;20503;-73
2022/01/07 03:18:38;;;;;;;4.22;2.20;;;;;;;3.23;53.36;93957.28;5020208;28;20570;-72
2022/01/07 03:21:04;;;;;;;3.88;2.45;;;;;;;3.25;52.96;93962.28;5019488;28;20044;-73
2022/01/07 03:23:30;;;;;;;5.13;3.13;;;;;;;3.22;53.07;93962.81;5011051;28;20051;-73
2022/01/07 03:25:56;;;;;;;2.85;2.42;;;;;;;3.18;53.01;93941.53;5016441;28;20108;-73
2022/01/07 03:28:21;;;;;;;4.03;2.95;;;;;;;3.44;52.57;93967.78;5017826;28;20539;-73
2022/01/07 03:30:47;;;;;;;4.78;2.90;;;;;;;3.10;52.97;93981.47;5007341;28;20033;-74
2022/01/07 03:33:13;;;;;;;3.65;2.28;;;;;;;3.13;53.12;93970.44;5013406;28;20072;-73
2022/01/07 03:35:42;;;;;;;3.28;2.72;;;;;;;3.14;53.39;93964.09;5020913;28;20413;-73
2022/01/07 03:38:08;;;;;;;3.05;2.25;;;;;;;3.15;53.38;93960.44;5019756;28;20056;-73
2022/01/07 03:40:35;;;;;;;2.40;1.98;;;;;;;3.31;52.69;93972.53;5007841;28;20049;-73
2022/01/07 03:43:02;;;;;;;4.65;2.72;;;;;;;3.21;52.77;93961.22;5013886;28;20341;-73
2022/01/07 03:45:27;;;;;;;3.63;2.63;;;;;;;2.97;52.94;93966.22;5016138;28;20552;-73
2022/01/07 03:47:53;;;;;;;3.22;2.53;;;;;;;3.04;53.01;93955.47;5012394;28;20128;-73
2022/01/07 03:50:21;;;;;;;4.10;2.60;;;;;;;3.26;52.59;93983.06;5017793;28;20025;-73
2022/01/07 03:52:48;;;;;;;3.17;2.80;;;;;;;2.85;52.77;93942.03;5019151;28;20059;-74
2022/01/07 03:55:15;;;;;;;4.65;2.90;;;;;;;2.95;52.93;93978.81;5013050;28;20041;-73
2022/01/07 03:57:41;;;;;;;4.85;2.80;;;;;;;2.96;53.20;93985.66;5003379;28;20037;-73
2022/01/07 04:00:13;;;;;;;3.20;2.35;;;;;;;3.09;53.11;93984.34;5011864;28;20065;-74
2022/01/07 04:02:39;;;;;;;4.53;2.80;;;;;;;3.06;53.08;93969.91;5016308;28;20559;-74
2022/01/07 04:05:05;;;;;;;4.25;2.47;;;;;;;3.27;52.75;93976.75;5023094;28;20136;-73
2022/01/07 04:07:31;;;;;;;4.20;2.78;;;;;;;3.03;52.79;93973.06;5026168;28;20055;-74
2022/01/07 04:09:58;;;;;;;3.92;2.85;;;;;;;3.28;52.69;93980.16;5024956;28;20041;-73
2022/01/07 04:12:24;;;;;;;5.80;2.95;;;;;;;3.47;52.37;93977.78;5015420;28;20041;-73
2022/01/07 04:15:02;;;;;;;3.97;2.50;;;;;;;3.52;52.00;93983.84;5014348;28;20591;-74
2022/01/07 04:17:29;;;;;;;5.32;3.28;;;;;;;3.65;51.58;93982.50;5001863;28;20143;-73
2022/01/07 04:19:54;;;;;;;5.03;2.53;;;;;;;3.68;51.44;93982.75;5022805;28;20155;-73
2022/01/07 04:22:20;;;;;;;3.53;2.55;;;;;;;3.68;51.43;93992.47;5016993;28;20810;-73
2022/01/07 04:24:45;;;;;;;3.22;2.80;;;;;;;3.34;51.89;93984.34;5022799;28;20048;-72
2022/01/07 04:27:12;;;;;;;5.30;3.30;;;;;;;3.16;52.12;93984.88;5008369;28;20047;-72
2022/01/07 04:29:38;;;;;;;3.60;2.55;;;;;;;3.13;52.73;94007.22;5004038;28;20045;-74
2022/01/07 04:32:05;;;;;;;4.70;2.35;;;;;;;3.17;52.49;94005.66;5015023;28;20032;-73
2022/01/07 04:34:30;;;;;;;3.45;2.90;;;;;;;3.23;52.37;94007.22;5014971;28;20045;-74
2022/01/07 04:36:56;;;;;;;3.72;3.10;;;;;;;3.29;52.36;93987.78;5014939;28;20029;-74
2022/01/07 04:39:21;;;;;;;5.68;3.63;;;;;;;3.35;51.80;93984.09;5017880;28;20409;-74
2022/01/07 04:41:46;;;;;;;5.35;3.05;;;;;;;3.46;52.06;94007.75;5005616;28;20033;-74
2022/01/07 04:44:12;;;;;;;6.20;4.40;;;;;;;3.52;52.19;94015.38;5024138;28;20048;-74
2022/01/07 04:46:37;;;;;;;6.07;3.50;;;;;;;3.46;52.03;94015.66;5015318;28;20479;-74
2022/01/07 04:49:03;;;;;;;4.22;2.72;;;;;;;3.51;51.59;93991.97;5024661;28;20045;-74
2022/01/07 04:51:29;;;;;;;5.45;3.20;;;;;;;3.38;51.97;94009.84;5023534;28;20485;-73
2022/01/07 04:54:07;;;;;;;4.43;2.92;;;;;;;3.45;52.21;94024.56;5013940;28;20041;-73
2022/01/07 04:56:32;;;;;;;5.68;2.88;;;;;;;3.48;52.00;94029.34;5008512;28;20151;-73
2022/01/07 04:59:06;;;;;;;4.00;2.80;;;;;;;3.38;52.19;94024.81;5019287;28;20043;-73
2022/01/07 05:01:32;;;;;;;7.45;4.30;;;;;;;3.46;52.41;94026.94;5007030;28;20053;-74
2022/01/07 05:03:57;;;;;;;11.02;6.60;;;;;;;3.37;52.33;94031.97;5012564;28;20389;-74
2022/01/07 05:09:07;;;;;;;5.22;4.43;;;;;;;3.05;53.14;94039.25;5020481;28;20088;-73
2022/01/07 05:11:33;;;;;;;6.18;4.25;;;;;;;3.15;53.09;94034.03;4996454;28;20329;-73
2022/01/07 05:13:58;;;;;;;3.75;2.90;;;;;;;3.13;52.98;94033.50;5017543;28;20108;-73
2022/01/07 05:16:24;;;;;;;5.72;3.75;;;;;;;2.96;53.12;94017.19;5005553;28;20183;-74
2022/01/07 05:18:49;;;;;;;6.25;4.32;;;;;;;3.20;53.19;94038.50;5015196;28;25051;-74
2022/01/07 05:21:15;;;;;;;4.57;3.45;;;;;;;3.05;53.57;94047.16;5009430;28;20049;-73
2022/01/07 05:23:40;;;;;;;5.55;4.38;;;;;;;3.27;52.90;94037.22;5004348;28;20125;-74
2022/01/07 05:26:07;;;;;;;6.88;3.67;;;;;;;3.24;52.83;94034.28;5008110;28;20463;-72
2022/01/07 05:28:34;;;;;;;5.63;3.83;;;;;;;3.22;53.20;94046.91;5007227;28;20389;-74
2022/01/07 05:31:00;;;;;;;5.95;4.07;;;;;;;3.07;52.95;94024.03;5018216;28;20351;-74
2022/01/07 05:33:25;;;;;;;4.55;3.33;;;;;;;3.17;52.86;94029.31;5015383;28;20150;-73
2022/01/07 05:35:51;;;;;;;5.50;3.90;;;;;;;3.30;52.87;94036.66;5019154;28;20591;-73
2022/01/07 05:38:16;;;;;;;6.55;4.25;;;;;;;2.96;53.58;94040.81;5014794;28;20041;-73
2022/01/07 05:40:41;;;;;;;7.50;4.40;;;;;;;2.82;53.69;94026.63;5010416;28;20025;-74
2022/01/07 05:43:07;;;;;;;4.35;3.60;;;;;;;2.89;53.91;94040.31;5023053;28;20109;-74
2022/01/07 05:45:32;;;;;;;6.13;4.05;;;;;;;2.55;54.57;94034.66;5023848;28;20052;-74
2022/01/07 05:47:57;;;;;;;4.63;3.58;;;;;;;2.65;54.95;94039.16;5018444;28;21118;-73
2022/01/07 05:50:23;;;;;;;16.67;4.15;;;;;;;2.50;55.04;94024.13;5007892;28;20068;-73
2022/01/07 05:52:48;;;;;;;5.68;3.47;;;;;;;2.53;55.43;94029.69;5023526;28;20470;-73
2022/01/07 05:55:14;;;;;;;6.32;3.63;;;;;;;2.60;55.17;94054.91;5017567;28;20037;-73
2022/01/07 05:57:40;;;;;;;7.63;4.03;;;;;;;2.63;54.98;94046.50;5009990;28;21096;-72
2022/01/07 06:00:07;;;;;;;4.03;2.70;;;;;;;2.94;54.32;94048.97;5020288;28;20282;-74
2022/01/07 06:02:32;;;;;;;4.93;3.13;;;;;;;2.74;54.58;94061.28;5016507;28;20037;-75
2022/01/07 06:04:58;;;;;;;5.97;3.85;;;;;;;2.73;54.66;94046.56;5014764;28;20371;-74
2022/01/07 06:07:23;;;;;;;6.68;3.90;;;;;;;2.82;54.68;94063.38;5016362;28;20034;-75
2022/01/07 06:09:49;;;;;;;5.03;3.30;;;;;;;2.69;54.65;94053.38;5012481;28;20045;-72
2022/01/07 06:12:14;;;;;;;6.38;3.95;;;;;;;2.64;55.03;94066.47;5016335;28;20086;-73
2022/01/07 06:14:40;;;;;;;5.40;4.25;;;;;;;2.76;54.73;94053.91;5017867;28;20511;-74
2022/01/07 06:17:10;;;;;;;9.30;4.25;;;;;;;2.77;54.58;94050.25;5005570;28;21350;-72
2022/01/07 06:19:36;;;;;;;5.78;3.70;;;;;;;2.61;55.07;94061.72;5023225;28;20035;-74
2022/01/07 06:22:01;;;;;;;9.10;4.97;;;;;;;2.77;54.88;94066.00;4998907;28;20385;-73
2022/01/07 06:24:27;;;;;;;8.60;4.13;;;;;;;2.76;54.72;94069.66;5019773;28;20060;-74
2022/01/07 06:26:52;;;;;;;6.68;4.18;;;;;;;2.80;54.90;94062.84;5017664;28;20382;-74
2022/01/07 06:29:17;;;;;;;8.45;4.70;;;;;;;2.91;54.62;94080.22;5013116;28;20115;-74
2022/01/07 06:31:43;;;;;;;5.43;3.67;;;;;;;2.63;54.65;94055.19;4993797;28;20040;-73
2022/01/07 06:34:08;;;;;;;9.20;4.25;;;;;;;2.66;54.94;94077.50;5014684;28;20072;-73
2022/01/07 06:36:34;;;;;;;9.57;5.50;;;;;;;2.64;55.09;94063.84;5010781;28;20371;-73
2022/01/07 06:38:59;;;;;;;6.18;4.40;;;;;;;2.62;55.26;94079.88;5017034;28;20048;-74
2022/01/07 06:41:25;;;;;;;7.18;3.95;;;;;;;2.56;55.38;94059.09;5013977;28;20045;-74
2022/01/07 06:43:50;;;;;;;8.68;4.57;;;;;;;2.67;55.02;94072.00;5022550;28;20488;-74
2022/01/07 06:46:16;;;;;;;8.23;3.30;;;;;;;2.92;54.95;94079.97;5021145;28;20044;-74
2022/01/07 06:48:41;;;;;;;6.18;4.13;;;;;;;3.02;54.34;94079.22;5008462;28;20033;-74
2022/01/07 06:51:06;;;;;;;5.82;3.90;;;;;;;3.21;53.93;94088.19;5014413;28;20132;-73
2022/01/07 06:53:32;;;;;;;5.03;4.18;;;;;;;3.25;53.68;94088.44;5023855;28;20123;-74
2022/01/07 06:55:58;;;;;;;6.22;4.15;;;;;;;3.39;53.32;94081.63;5006370;28;20126;-73
2022/01/07 06:58:23;;;;;;;9.68;5.38;;;;;;;3.31;53.01;94069.81;5006446;28;20041;-73
2022/01/07 07:00:49;;;;;;;7.65;4.65;;;;;;;3.46;53.08;94089.28;5011000;28;20043;-74
2022/01/07 07:03:14;;;;;;;7.65;4.15;;;;;;;3.52;52.50;94075.09;5011000;28;20049;-74
2022/01/07 07:05:40;;;;;;;7.95;5.35;;;;;;;3.74;52.38;94100.06;5021324;28;20459;-74
2022/01/07 07:08:05;;;;;;;6.50;5.32;;;;;;;3.60;52.48;94080.59;5022279;28;20140;-74
2022/01/07 07:10:31;;;;;;;5.97;4.80;;;;;;;3.64;52.72;94097.44;5009185;28;20696;-74
2022/01/07 07:12:57;;;;;;;10.00;4.60;;;;;;;3.54;52.94;94075.59;5001104;28;20056;-73
2022/01/07 07:15:22;;;;;;;7.85;4.38;;;;;;;3.78;52.63;94095.84;5017843;28;20557;-73
2022/01/07 07:17:48;;;;;;;5.78;3.63;;;;;;;3.77;52.13;94075.09;4997988;28;20073;-73
2022/01/07 07:20:14;;;;;;;7.45;3.72;;;;;;;3.93;51.79;94084.53;5021951;28;20502;-74
2022/01/07 07:22:39;;;;;;;7.38;4.88;;;;;;;3.94;52.07;94085.31;5009524;28;20056;-74
2022/01/07 07:25:05;;;;;;;7.57;4.20;;;;;;;4.03;51.68;94084.53;4999151;28;20559;-75
2022/01/07 07:27:31;;;;;;;8.90;4.65;;;;;;;3.79;51.99;94073.75;5003213;28;20037;-74
2022/01/07 07:29:56;;;;;;;7.13;3.53;;;;;;;3.69;52.17;94070.34;4993010;28;20048;-74
2022/01/07 07:32:26;;;;;;;7.68;4.03;;;;;;;3.90;51.96;94079.81;5019089;28;20132;-75
2022/01/07 07:35:12;;;;;;;4.95;3.80;;;;;;;3.87;51.94;94095.34;5003323;28;20033;-75
2022/01/07 07:37:38;;;;;;;7.65;4.40;;;;;;;3.87;52.05;94090.84;5011889;28;20367;-74
2022/01/07 07:40:04;;;;;;;9.07;4.28;;;;;;;3.43;52.97;94074.03;5018110;28;20087;-74
2022/01/07 07:42:29;;;;;;;7.18;4.53;;;;;;;3.63;52.97;94087.16;4997784;28;20052;-75
2022/01/07 07:44:55;;;;;;;9.93;5.25;;;;;;;3.75;52.83;94069.28;5012425;28;20045;-75
2022/01/07 07:47:20;;;;;;;8.25;3.88;;;;;;;4.14;51.75;94088.72;5013804;28;20029;-74
2022/01/07 07:49:45;;;;;;;10.50;5.70;;;;;;;4.27;51.59;94092.63;5017547;28;20132;-75
2022/01/07 07:52:12;;;;;;;11.07;5.75;;;;;;;4.14;51.88;94080.81;5014850;28;20090;-75
2022/01/07 07:54:37;;;;;;;9.05;6.25;;;;;;;3.99;51.86;94088.75;5017345;28;20032;-74
2022/01/07 07:57:03;;;;;;;8.52;5.18;;;;;;;3.89;51.89;94103.75;5016750;28;20095;-74
2022/01/07 07:59:29;;;;;;;11.15;5.10;;;;;;;3.53;52.16;94069.53;5007192;28;20045;-73
2022/01/07 08:01:54;;;;;;;9.23;6.47;;;;;;;3.43;52.61;94087.19;5016830;28;20029;-74
2022/01/07 08:04:21;;;;;;;7.72;4.53;;;;;;;3.63;52.58;94103.75;5010774;28;20052;-74
2022/01/07 08:06:47;;;;;;;6.15;4.53;;;;;;;3.67;52.07;94101.41;5019890;28;20128;-74
2022/01/07 08:09:13;;;;;;;9.70;6.32;;;;;;;3.58;52.28;94102.94;5019968;28;20531;-74
2022/01/07 08:11:49;;;;;;;10.43;5.35;;;;;;;3.59;52.40;94107.16;5004415;28;20038;-73
2022/01/07 08:17:00;;;;;;;;;;;;;;;3.74;52.17;94104.53;5017963;28;20044;-75
2022/01/07 08:19:25;;;;;;;8.80;4.72;;;;;;;3.70;52.24;94104.28;5023813;28;19920;-74
2022/01/07 08:21:51;;;;;;;8.43;5.20;;;;;;;3.76;52.09;94105.06;5019372;28;20088;-73
2022/01/07 08:24:16;;;;;;;10.35;5.90;;;;;;;3.81;52.28;94107.72;5021381;28;20524;-74
2022/01/07 08:26:42;;;;;;;9.13;5.47;;;;;;;3.82;51.82;94078.47;5010917;28;20569;-74
2022/01/07 08:29:10;;;;;;;8.90;5.15;;;;;;;4.05;51.69;94106.13;5014781;28;20029;-73
2022/01/07 08:36:52;;;;;;;10.65;5.72;;;;;;;4.43;50.04;94098.69;5019145;28;20043;-73
2022/01/07 08:39:18;;;;;;;14.27;6.72;;;;;;;4.25;50.77;94089.50;5018068;28;20045;-74
2022/01/07 08:41:44;;;;;;;14.10;8.15;;;;;;;4.36;50.73;94091.06;5024083;28;20148;-73
2022/01/07 08:44:10;;;;;;;13.35;8.65;;;;;;;4.51;50.45;94090.25;5005090;28;20552;-74
2022/01/07 08:46:36;;;;;;;11.30;5.55;;;;;;;4.27;50.68;94072.38;5020055;28;20017;-73
2022/01/07 08:49:04;;;;;;;15.60;7.65;;;;;;;4.50;50.33;94078.16;5022884;28;20037;-74
2022/01/07 08:51:30;;;;;;;8.48;6.05;;;;;;;4.46;50.18;94056.00;5008978;28;20051;-74
2022/01/07 08:53:56;;;;;;;9.75;5.07;;;;;;;4.61;49.87;94069.13;5028004;28;20041;-73
2022/01/07 08:56:23;;;;;;;10.35;5.32;;;;;;;4.61;50.16;94074.41;5026232;28;20028;-73
2022/01/07 08:58:54;;;;;;;10.90;6.60;;;;;;;4.74;49.75;94073.84;5026034;28;20557;-74
2022/01/07 09:01:21;;;;;;;15.68;6.90;;;;;;;4.75;49.85;94062.22;5025039;28;20502;-74
2022/01/07 09:03:47;;;;;;;7.40;4.65;;;;;;;4.74;49.20;94039.59;5026315;28;20049;-74
2022/01/07 09:06:12;;;;;;;8.15;4.75;;;;;;;4.49;49.88;94045.75;5024164;28;20033;-74
2022/01/07 09:08:38;;;;;;;7.88;4.88;;;;;;;5.07;49.49;94059.97;5014218;28;21157;-73
2022/01/07 09:11:03;;;;;;;8.45;5.47;;;;;;;5.24;48.72;94061.44;5028102;28;20032;-73
2022/01/07 09:13:29;;;;;;;11.20;5.28;;;;;;;5.21;48.42;94056.72;5026220;28;20176;-74
2022/01/07 09:15:54;;;;;;;11.25;6.32;;;;;;;5.29;48.24;94041.09;5022929;28;20064;-73
2022/01/07 09:18:21;;;;;;;13.35;5.82;;;;;;;5.51;47.95;94059.16;5021799;28;20376;-75
2022/01/07 09:20:48;;;;;;;14.63;8.63;;;;;;;5.56;47.63;94061.78;5023661;28;20044;-74
2022/01/07 09:23:14;;;;;;;12.00;6.35;;;;;;;5.44;47.99;94054.19;5014255;28;20059;-73
2022/01/07 09:25:40;;;;;;;12.73;7.88;;;;;;;5.46;47.65;94022.28;5026147;28;20108;-73
2022/01/07 09:28:07;;;;;;;14.57;7.13;;;;;;;5.58;47.58;94027.97;5023993;28;20560;-74
2022/01/07 09:30:33;;;;;;;13.13;7.57;;;;;;;5.63;47.34;94022.66;5023029;28;20128;-74
2022/01/07 09:32:59;;;;;;;16.92;10.43;;;;;;;5.74;47.46;94028.63;5023397;28;20104;-74
2022/01/07 09:35:25;;;;;;;15.27;8.35;;;;;;;5.61;47.97;94039.84;5024284;28;20032;-74
2022/01/07 09:37:50;;;;;;;22.05;10.88;;;;;;;5.14;48.89;94036.72;5023418;28;20456;-74
2022/01/07 09:40:17;;;;;;;13.82;7.88;;;;;;;5.41;48.63;94035.50;5023137;28;20037;-73
2022/01/07 09:43:04;;;;;;;14.55;8.23;;;;;;;5.57;48.49;94034.31;5019746;28;20394;-74
2022/01/07 09:45:32;;;;;;;15.88;8.02;;;;;;;5.59;47.80;94005.81;5024460;28;20729;-75
2022/01/07 09:47:58;;;;;;;17.95;9.70;;;;;;;5.27;49.02;94035.34;5020937;28;20045;-74
2022/01/07 09:50:26;;;;;;;18.48;7.75;;;;;;;5.54;48.90;94009.28;5024318;28;20132;-74
2022/01/07 09:52:52;;;;;;;19.38;9.07;;;;;;;5.79;47.91;94020.66;5026293;28;20380;-74
2022/01/07 09:55:18;;;;;;;15.88;8.70;;;;;;;5.93;47.90;94026.88;5025604;28;20476;-74
2022/01/07 09:57:43;;;;;;;14.32;8.68;;;;;;;5.67;47.87;93992.03;5020298;28;20025;-73
2022/01/07 10:00:10;;;;;;;15.88;8.30;;;;;;;5.50;48.59;94002.19;5022046;28;20032;-74
2022/01/07 10:02:36;;;;;;;16.80;8.77;;;;;;;5.28;48.92;94015.03;5022862;28;20044;-74
2022/01/07 10:05:18;;;;;;;16.17;9.45;;;;;;;4.46;50.68;94009.41;5023247;28;20040;-73
2022/01/07 10:07:44;;;;;;;14.05;7.35;;;;;;;4.56;51.03;94019.09;5024028;28;20040;-74
2022/01/07 10:10:16;;;;;;;14.90;8.20;;;;;;;4.60;51.18;94017.53;5019688;28;20783;-74
2022/01/07 10:12:51;;;;;;;14.55;7.82;;;;;;;4.82;50.85;94025.84;5022563;28;20039;-73
2022/01/07 10:15:18;;;;;;;19.65;8.35;;;;;;;5.29;49.61;94017.38;5019846;28;20133;-74
2022/01/07 10:17:57;;;;;;;15.65;7.78;;;;;;;5.54;48.90;94014.53;5022652;28;20033;-74
2022/01/07 10:20:32;;;;;;;13.75;7.97;;;;;;;5.01;49.97;94018.09;5024820;28;20488;-73
2022/01/07 10:23:07;;;;;;;13.75;7.75;;;;;;;5.24;49.35;94024.53;5006680;28;20048;-74
2022/01/07 10:25:38;;;;;;;9.73;6.55;;;;;;;4.86;49.74;93978.66;5020616;28;20045;-74
2022/01/07 10:28:12;;;;;;;14.85;6.20;;;;;;;5.49;48.81;93992.69;5019114;28;20646;-74
2022/01/07 10:30:46;;;;;;;17.52;7.25;;;;;;;5.33;49.48;94007.88;5016315;28;20525;-74
2022/01/07 10:33:26;;;;;;;98.82;28.10;;;;;;;5.34;49.32;93964.59;5022765;28;20376;-73
2022/01/07 10:35:53;;;;;;;15.10;8.68;;;;;;;4.67;50.62;93987.19;5015544;28;20214;-74
2022/01/07 10:38:25;;;;;;;17.08;8.57;;;;;;;4.20;51.47;93971.03;5019831;28;20018;-73
2022/01/07 10:40:53;;;;;;;18.95;9.02;;;;;;;4.69;50.94;93986.91;5022189;28;20133;-73
2022/01/07 10:43:27;;;;;;;18.73;10.20;;;;;;;4.10;51.63;93987.66;5018810;28;20037;-74
2022/01/07 10:45:58;;;;;;;12.75;7.65;;;;;;;4.22;51.13;93982.88;5018379;28;20110;-73
2022/01/07 10:48:37;;;;;;;18.42;8.93;;;;;;;4.16;51.50;93972.66;5009968;28;20778;-73
2022/01/07 10:51:08;;;;;;;16.77;8.18;;;;;;;4.43;51.35;93977.56;5008618;28;20440;-73
2022/01/07 10:53:34;;;;;;;11.77;7.40;;;;;;;4.20;51.12;93986.84;5018151;28;20501;-73
2022/01/07 10:56:16;;;;;;;21.05;8.90;;;;;;;4.44;51.22;93989.66;5013769;28;20482;-74
2022/01/07 10:58:47;;;;;;;12.20;7.47;;;;;;;4.09;51.53;93988.72;5015023;28;20049;-73
2022/01/07 11:01:19;;;;;;;9.98;6.32;;;;;;;4.27;51.33;93985.47;5015784;28;20137;-74
2022/01/07 11:03:46;;;;;;;14.45;7.55;;;;;;;4.58;50.65;93973.00;5018740;28;20053;-73
2022/01/07 11:06:11;;;;;;;10.05;7.18;;;;;;;4.32;50.29;93960.22;5003818;28;20060;-74
2022/01/07 11:08:37;;;;;;;14.98;7.30;;;;;;;4.46;49.48;93961.19;5020378;28;20044;-74
2022/01/07 11:11:03;;;;;;;9.73;5.75;;;;;;;4.21;49.70;93976.03;5015845;28;20016;-74
2022/01/07 11:13:30;;;;;;;9.70;6.05;;;;;;;4.21;50.09;93975.22;5004615;28;20033;-73
2022/01/07 11:15:55;;;;;;;11.02;5.85;;;;;;;3.88;50.05;93955.59;5016202;28;20033;-73
2022/01/07 11:18:21;;;;;;;13.10;6.72;;;;;;;3.94;50.32;93954.53;5024528;28;20048;-73
2022/01/07 11:20:46;;;;;;;7.05;4.85;;;;;;;4.07;49.47;93961.06;5021765;28;20685;-73
2022/01/07 11:23:12;;;;;;;7.38;5.03;;;;;;;4.37;48.85;93960.19;5021013;28;20083;-74
2022/01/07 11:25:38;;;;;;;6.35;4.47;;;;;;;4.05;49.03;93915.81;5020186;28;20037;-73
2022/01/07 11:28:03;;;;;;;14.93;6.45;;;;;;;4.25;49.41;93960.50;5020854;28;20044;-74
2022/01/07 11:30:33;;;;;;;16.27;7.18;;;;;;;3.80;50.05;93932.47;5016955;28;20064;-74
2022/01/07 11:33:00;;;;;;;11.43;6.45;;;;;;;4.12;49.47;93940.78;5019950;28;20029;-74
2022/01/07 11:35:26;;;;;;;10.88;5.38;;;;;;;4.21;49.10;93959.44;5024126;28;20196;-73
2022/01/07 11:37:58;;;;;;;9.63;4.90;;;;;;;4.52;47.91;93957.50;5019413;28;20072;-73
2022/01/07 11:40:30;;;;;;;10.27;5.13;;;;;;;4.85;47.52;93956.78;5020525;28;20045;-73
2022/01/07 11:43:20;;;;;;;12.95;6.18;;;;;;;4.90;47.53;93946.19;5008558;28;20587;-74
2022/01/07 11:45:46;;;;;;;12.07;6.20;;;;;;;4.73;46.79;93937.88;5009190;28;20045;-74
2022/01/07 11:48:11;;;;;;;12.18;5.65;;;;;;;4.94;46.64;93941.94;5020780;28;20438;-74